createdAt,value
2023-03-15T00:00:34.422Z,945.49
2023-03-15T00:01:34.358Z,945.57
2023-03-15T00:02:33.488Z,945.52
2023-03-15T00:03:33.600Z,945.59
2023-03-15T00:04:33.477Z,945.47
2023-03-15T00:05:34.021Z,945.46
2023-03-15T00:06:33.714Z,945.47
2023-03-15T00:07:34.330Z,945.46
2023-03-15T00:08:33.411Z,945.54
2023-03-15T00:09:33.476Z,945.56
2023-03-15T00:10:33.534Z,945.53
2023-03-15T00:11:35.886Z,945.50
2023-03-15T00:12:33.365Z,945.56
2023-03-15T00:13:33.347Z,945.55
2023-03-15T00:14:34.314Z,945.62
2023-03-15T00:15:33.766Z,945.58
2023-03-15T00:16:33.299Z,945.56
2023-03-15T00:17:33.267Z,945.54
2023-03-15T00:18:33.260Z,945.59
2023-03-15T00:19:33.432Z,945.65
2023-03-15T00:20:33.521Z,945.60
2023-03-15T00:21:33.536Z,945.60
2023-03-15T00:22:34.031Z,945.69
2023-03-15T00:23:34.835Z,945.65
2023-03-15T00:24:34.176Z,945.58
2023-03-15T00:25:33.309Z,945.58
2023-03-15T00:26:33.213Z,945.63
2023-03-15T00:27:33.153Z,945.69
2023-03-15T00:28:33.858Z,945.64
2023-03-15T00:29:34.732Z,945.69
2023-03-15T00:30:33.156Z,945.67
2023-03-15T00:31:33.173Z,945.69
2023-03-15T00:32:33.222Z,945.70
2023-03-15T00:33:33.103Z,945.73
2023-03-15T00:34:33.087Z,945.78
2023-03-15T00:35:33.108Z,945.79
2023-03-15T00:36:33.099Z,945.84
2023-03-15T00:37:33.074Z,945.90
2023-03-15T00:38:34.158Z,945.83
2023-03-15T00:39:33.997Z,945.84
2023-03-15T00:40:33.945Z,945.91
2023-03-15T00:41:33.056Z,945.91
2023-03-15T00:42:33.143Z,945.95
2023-03-15T00:43:33.770Z,945.95
2023-03-15T00:44:32.993Z,945.98
2023-03-15T00:45:33.040Z,945.92
2023-03-15T00:46:32.972Z,945.96
2023-03-15T00:47:33.496Z,945.99
2023-03-15T00:48:32.933Z,945.98
2023-03-15T00:49:32.947Z,945.99
2023-03-15T00:50:32.912Z,946.04
2023-03-15T00:51:32.898Z,946.05
2023-03-15T00:52:32.889Z,946.10
2023-03-15T00:53:32.895Z,946.07
2023-03-15T00:54:32.899Z,946.11
2023-03-15T00:55:32.867Z,946.11
2023-03-15T00:56:32.869Z,946.15
2023-03-15T00:57:32.838Z,946.14
2023-03-15T00:58:32.857Z,946.14
2023-03-15T00:59:32.854Z,946.20
2023-03-15T01:00:32.812Z,946.17
2023-03-15T01:01:33.313Z,946.23
2023-03-15T01:02:32.825Z,946.25
2023-03-15T01:03:36.922Z,946.31
2023-03-15T01:04:33.391Z,946.35
2023-03-15T01:05:33.783Z,946.27
2023-03-15T01:06:32.767Z,946.31
2023-03-15T01:07:32.772Z,946.30
2023-03-15T01:08:32.751Z,946.34
2023-03-15T01:09:32.749Z,946.35
2023-03-15T01:10:32.700Z,946.37
2023-03-15T01:11:32.702Z,946.41
2023-03-15T01:12:32.688Z,946.41
2023-03-15T01:13:32.684Z,946.37
2023-03-15T01:14:32.689Z,946.39
2023-03-15T01:15:32.689Z,946.44
2023-03-15T01:16:32.703Z,946.40
2023-03-15T01:17:32.662Z,946.48
2023-03-15T01:18:32.626Z,946.44
2023-03-15T01:19:32.635Z,946.45
2023-03-15T01:20:32.609Z,946.55
2023-03-15T01:21:32.611Z,946.49
2023-03-15T01:22:32.576Z,946.47
2023-03-15T01:23:32.625Z,946.45
2023-03-15T01:24:32.929Z,946.49
2023-03-15T01:25:32.566Z,946.47
2023-03-15T01:26:32.552Z,946.49
2023-03-15T01:27:32.526Z,946.50
2023-03-15T01:28:32.603Z,946.46
2023-03-15T01:29:32.562Z,946.45
2023-03-15T01:30:32.537Z,946.45
2023-03-15T01:31:32.704Z,946.48
2023-03-15T01:32:32.485Z,946.51
2023-03-15T01:33:32.472Z,946.52
2023-03-15T01:34:32.440Z,946.50
2023-03-15T01:35:32.479Z,946.51
2023-03-15T01:36:32.465Z,946.48
2023-03-15T01:37:32.419Z,946.50
2023-03-15T01:38:32.399Z,946.50
2023-03-15T01:39:32.392Z,946.48
2023-03-15T01:40:32.387Z,946.54
2023-03-15T01:41:32.372Z,946.56
2023-03-15T01:42:32.382Z,946.54
2023-03-15T01:43:32.381Z,946.53
2023-03-15T01:44:32.322Z,946.57
2023-03-15T01:45:32.336Z,946.53
2023-03-15T01:46:32.368Z,946.52
2023-03-15T01:47:32.314Z,946.59
2023-03-15T01:48:33.185Z,946.65
2023-03-15T01:49:32.475Z,946.64
2023-03-15T01:50:32.271Z,946.68
2023-03-15T01:51:32.339Z,946.63
2023-03-15T01:52:32.308Z,946.63
2023-03-15T01:53:32.240Z,946.60
2023-03-15T01:54:32.252Z,946.63
2023-03-15T01:55:32.225Z,946.67
2023-03-15T01:56:32.202Z,946.65
2023-03-15T01:57:32.207Z,946.63
2023-03-15T01:58:32.181Z,946.68
2023-03-15T01:59:32.201Z,946.67
2023-03-15T02:00:32.214Z,946.69
2023-03-15T02:01:32.193Z,946.69
2023-03-15T02:02:32.189Z,946.65
2023-03-15T02:03:32.126Z,946.69
2023-03-15T02:04:32.150Z,946.69
2023-03-15T02:05:32.142Z,946.67
2023-03-15T02:06:32.121Z,946.68
2023-03-15T02:07:32.181Z,946.70
2023-03-15T02:08:32.079Z,946.72
2023-03-15T02:09:32.078Z,946.74
2023-03-15T02:10:32.062Z,946.74
2023-03-15T02:11:35.440Z,946.79
2023-03-15T02:12:32.066Z,946.79
2023-03-15T02:13:32.027Z,946.87
2023-03-15T02:14:32.014Z,946.89
2023-03-15T02:15:32.061Z,946.88
2023-03-15T02:16:32.015Z,946.97
2023-03-15T02:17:32.021Z,946.91
2023-03-15T02:18:31.988Z,946.92
2023-03-15T02:19:31.968Z,946.98
2023-03-15T02:20:32.050Z,947.02
2023-03-15T02:21:31.958Z,947.03
2023-03-15T02:22:32.053Z,947.08
2023-03-15T02:23:31.942Z,947.11
2023-03-15T02:24:31.922Z,947.04
2023-03-15T02:25:31.988Z,947.12
2023-03-15T02:26:32.027Z,947.10
2023-03-15T02:27:31.946Z,947.12
2023-03-15T02:28:31.855Z,947.08
2023-03-15T02:29:31.873Z,947.12
2023-03-15T02:30:32.489Z,947.10
2023-03-15T02:31:32.462Z,947.08
2023-03-15T02:32:31.893Z,947.14
2023-03-15T02:33:31.813Z,947.11
2023-03-15T02:34:32.621Z,947.05
2023-03-15T02:35:31.884Z,947.06
2023-03-15T02:36:31.992Z,947.10
2023-03-15T02:37:32.509Z,947.14
2023-03-15T02:38:31.775Z,947.10
2023-03-15T02:39:31.789Z,947.15
2023-03-15T02:40:32.020Z,947.13
2023-03-15T02:41:31.739Z,947.17
2023-03-15T02:42:31.734Z,947.14
2023-03-15T02:43:31.828Z,947.13
2023-03-15T02:44:31.740Z,947.20
2023-03-15T02:45:31.696Z,947.17
2023-03-15T02:46:31.727Z,947.19
2023-03-15T02:47:31.679Z,947.16
2023-03-15T02:48:31.646Z,947.22
2023-03-15T02:49:31.639Z,947.22
2023-03-15T02:50:31.675Z,947.19
2023-03-15T02:51:31.621Z,947.26
2023-03-15T02:52:31.625Z,947.22
2023-03-15T02:53:31.628Z,947.26
2023-03-15T02:54:31.593Z,947.27
2023-03-15T02:55:31.610Z,947.32
2023-03-15T02:56:31.586Z,947.25
2023-03-15T02:57:32.319Z,947.27
2023-03-15T02:58:31.555Z,947.32
2023-03-15T02:59:31.548Z,947.35
2023-03-15T03:00:31.531Z,947.41
2023-03-15T03:01:32.057Z,947.37
2023-03-15T03:02:31.603Z,947.40
2023-03-15T03:03:31.524Z,947.38
2023-03-15T03:04:31.494Z,947.42
2023-03-15T03:05:31.491Z,947.39
2023-03-15T03:06:31.473Z,947.41
2023-03-15T03:07:31.503Z,947.43
2023-03-15T03:08:31.482Z,947.47
2023-03-15T03:09:31.463Z,947.45
2023-03-15T03:10:31.467Z,947.45
2023-03-15T03:11:31.402Z,947.47
2023-03-15T03:12:31.439Z,947.48
2023-03-15T03:13:31.386Z,947.47
2023-03-15T03:14:31.394Z,947.50
2023-03-15T03:15:31.399Z,947.50
2023-03-15T03:16:32.397Z,947.50
2023-03-15T03:17:31.406Z,947.57
2023-03-15T03:18:31.952Z,947.55
2023-03-15T03:19:31.325Z,947.54
2023-03-15T03:20:31.473Z,947.59
2023-03-15T03:21:31.326Z,947.64
2023-03-15T03:22:31.698Z,947.61
2023-03-15T03:23:31.528Z,947.65
2023-03-15T03:24:31.296Z,947.70
2023-03-15T03:25:31.265Z,947.77
2023-03-15T03:26:31.247Z,947.71
2023-03-15T03:27:31.359Z,947.74
2023-03-15T03:28:31.239Z,947.77
2023-03-15T03:29:31.268Z,947.77
2023-03-15T03:30:31.311Z,947.75
2023-03-15T03:31:31.997Z,947.74
2023-03-15T03:32:31.230Z,947.77
2023-03-15T03:33:31.327Z,947.78
2023-03-15T03:34:31.158Z,947.77
2023-03-15T03:35:31.196Z,947.79
2023-03-15T03:36:31.492Z,947.82
2023-03-15T03:37:32.229Z,947.81
2023-03-15T03:38:31.551Z,947.77
2023-03-15T03:39:31.307Z,947.82
2023-03-15T03:40:31.300Z,947.80
2023-03-15T03:41:31.277Z,947.81
2023-03-15T03:42:31.074Z,947.81
2023-03-15T03:43:31.064Z,947.80
2023-03-15T03:44:31.065Z,947.93
2023-03-15T03:45:31.033Z,947.88
2023-03-15T03:46:31.093Z,947.88
2023-03-15T03:47:31.113Z,947.88
2023-03-15T03:48:31.146Z,947.88
2023-03-15T03:49:31.261Z,947.91
2023-03-15T03:50:31.344Z,947.94
2023-03-15T03:51:31.001Z,947.93
2023-03-15T03:52:31.240Z,947.99
2023-03-15T03:53:30.964Z,948.03
2023-03-15T03:54:31.560Z,948.01
2023-03-15T03:55:31.540Z,948.09
2023-03-15T03:56:31.258Z,948.06
2023-03-15T03:57:31.543Z,948.09
2023-03-15T03:58:32.022Z,948.08
2023-03-15T03:59:31.182Z,948.13
2023-03-15T04:00:31.710Z,948.14
2023-03-15T04:01:31.186Z,948.14
2023-03-15T04:02:31.051Z,948.15
2023-03-15T04:03:30.937Z,948.18
2023-03-15T04:04:31.005Z,948.13
2023-03-15T04:05:30.853Z,948.16
2023-03-15T04:06:30.825Z,948.17
2023-03-15T04:07:33.016Z,948.20
2023-03-15T04:08:31.094Z,948.13
2023-03-15T04:09:31.082Z,948.23
2023-03-15T04:10:30.770Z,948.28
2023-03-15T04:11:30.790Z,948.32
2023-03-15T04:12:31.514Z,948.30
2023-03-15T04:13:31.772Z,948.34
2023-03-15T04:14:30.753Z,948.30
2023-03-15T04:15:31.869Z,948.34
2023-03-15T04:16:30.846Z,948.33
2023-03-15T04:17:31.824Z,948.37
2023-03-15T04:18:30.725Z,948.37
2023-03-15T04:19:30.718Z,948.32
2023-03-15T04:20:30.684Z,948.33
2023-03-15T04:21:30.768Z,948.31
2023-03-15T04:22:30.665Z,948.35
2023-03-15T04:23:30.636Z,948.34
2023-03-15T04:24:30.625Z,948.43
2023-03-15T04:25:30.630Z,948.40
2023-03-15T04:26:30.632Z,948.47
2023-03-15T04:27:30.619Z,948.46
2023-03-15T04:28:30.598Z,948.50
2023-03-15T04:29:30.570Z,948.49
2023-03-15T04:30:30.836Z,948.48
2023-03-15T04:31:30.607Z,948.51
2023-03-15T04:32:30.571Z,948.57
2023-03-15T04:33:30.537Z,948.55
2023-03-15T04:34:30.525Z,948.58
2023-03-15T04:35:30.513Z,948.61
2023-03-15T04:36:30.533Z,948.57
2023-03-15T04:37:30.488Z,948.65
2023-03-15T04:38:30.518Z,948.57
2023-03-15T04:39:30.480Z,948.60
2023-03-15T04:40:30.446Z,948.64
2023-03-15T04:41:30.468Z,948.65
2023-03-15T04:42:30.456Z,948.68
2023-03-15T04:43:30.446Z,948.66
2023-03-15T04:44:30.424Z,948.71
2023-03-15T04:45:30.415Z,948.74
2023-03-15T04:46:30.438Z,948.79
2023-03-15T04:47:30.406Z,948.79
2023-03-15T04:48:30.367Z,948.74
2023-03-15T04:49:30.365Z,948.83
2023-03-15T04:50:30.382Z,948.82
2023-03-15T04:51:30.357Z,948.89
2023-03-15T04:52:30.361Z,948.92
2023-03-15T04:53:30.344Z,948.91
2023-03-15T04:54:30.331Z,948.93
2023-03-15T04:55:30.319Z,948.98
2023-03-15T04:56:30.304Z,948.98
2023-03-15T04:57:30.337Z,949.01
2023-03-15T04:58:30.269Z,949.00
2023-03-15T04:59:30.337Z,949.00
2023-03-15T05:00:30.431Z,948.97
2023-03-15T05:01:30.225Z,949.00
2023-03-15T05:02:30.235Z,948.99
2023-03-15T05:03:30.226Z,949.02
2023-03-15T05:04:30.214Z,949.00
2023-03-15T05:05:30.264Z,949.02
2023-03-15T05:06:30.189Z,949.03
2023-03-15T05:07:30.810Z,949.07
2023-03-15T05:08:30.150Z,949.11
2023-03-15T05:09:30.149Z,949.11
2023-03-15T05:10:30.148Z,949.08
2023-03-15T05:11:30.372Z,949.13
2023-03-15T05:12:30.136Z,949.13
2023-03-15T05:13:30.338Z,949.12
2023-03-15T05:14:30.848Z,949.16
2023-03-15T05:15:30.157Z,949.17
2023-03-15T05:16:30.123Z,949.13
2023-03-15T05:17:30.100Z,949.22
2023-03-15T05:18:30.065Z,949.17
2023-03-15T05:19:31.053Z,949.18
2023-03-15T05:20:30.282Z,949.20
2023-03-15T05:21:30.031Z,949.17
2023-03-15T05:22:30.036Z,949.24
2023-03-15T05:23:30.053Z,949.27
2023-03-15T05:24:29.982Z,949.26
2023-03-15T05:25:29.983Z,949.26
2023-03-15T05:26:30.606Z,949.30
2023-03-15T05:27:30.314Z,949.28
2023-03-15T05:28:30.048Z,949.30
2023-03-15T05:29:29.925Z,949.33
2023-03-15T05:30:30.819Z,949.33
2023-03-15T05:31:29.940Z,949.44
2023-03-15T05:32:30.650Z,949.39
2023-03-15T05:33:31.028Z,949.42
2023-03-15T05:34:30.343Z,949.43
2023-03-15T05:35:30.813Z,949.43
2023-03-15T05:36:30.887Z,949.50
2023-03-15T05:37:29.876Z,949.48
2023-03-15T05:38:29.841Z,949.53
2023-03-15T05:39:29.857Z,949.50
2023-03-15T05:40:29.957Z,949.54
2023-03-15T05:41:29.892Z,949.55
2023-03-15T05:42:29.802Z,949.54
2023-03-15T05:43:31.016Z,949.59
2023-03-15T05:44:29.780Z,949.62
2023-03-15T05:45:31.130Z,949.54
2023-03-15T05:46:29.785Z,949.62
2023-03-15T05:47:29.737Z,949.66
2023-03-15T05:48:29.718Z,949.60
2023-03-15T05:49:29.751Z,949.65
2023-03-15T05:50:29.801Z,949.64
2023-03-15T05:51:29.692Z,949.61
2023-03-15T05:52:29.700Z,949.67
2023-03-15T05:53:33.644Z,949.72
2023-03-15T05:54:29.690Z,949.67
2023-03-15T05:55:30.617Z,949.75
2023-03-15T05:56:30.221Z,949.70
2023-03-15T05:57:29.918Z,949.81
2023-03-15T05:58:29.748Z,949.79
2023-03-15T05:59:29.876Z,949.80
2023-03-15T06:00:29.658Z,949.80
2023-03-15T06:01:29.746Z,949.86
2023-03-15T06:02:29.673Z,949.86
2023-03-15T06:03:29.594Z,949.89
2023-03-15T06:04:32.168Z,949.89
2023-03-15T06:05:29.645Z,949.96
2023-03-15T06:06:31.494Z,949.98
2023-03-15T06:07:30.434Z,949.97
2023-03-15T06:08:29.533Z,950.01
2023-03-15T06:09:29.537Z,950.07
2023-03-15T06:10:29.514Z,950.03
2023-03-15T06:11:29.472Z,950.10
2023-03-15T06:12:29.488Z,950.09
2023-03-15T06:13:29.479Z,950.11
2023-03-15T06:14:29.444Z,950.12
2023-03-15T06:15:29.441Z,950.13
2023-03-15T06:16:30.235Z,950.12
2023-03-15T06:17:30.540Z,950.17
2023-03-15T06:18:29.422Z,950.16
2023-03-15T06:19:29.439Z,950.18
2023-03-15T06:20:30.176Z,950.18
2023-03-15T06:21:29.381Z,950.24
2023-03-15T06:22:30.341Z,950.27
2023-03-15T06:23:30.850Z,950.26
2023-03-15T06:24:29.343Z,950.35
2023-03-15T06:25:29.323Z,950.36
2023-03-15T06:26:30.153Z,950.34
2023-03-15T06:27:29.550Z,950.36
2023-03-15T06:28:29.382Z,950.41
2023-03-15T06:29:30.451Z,950.43
2023-03-15T06:30:29.518Z,950.42
2023-03-15T06:31:29.369Z,950.49
2023-03-15T06:32:29.294Z,950.49
2023-03-15T06:33:29.270Z,950.52
2023-03-15T06:34:29.235Z,950.60
2023-03-15T06:35:29.221Z,950.56
2023-03-15T06:36:29.205Z,950.58
2023-03-15T06:37:35.367Z,950.64
2023-03-15T06:38:29.202Z,950.64
2023-03-15T06:39:29.204Z,950.73
2023-03-15T06:40:29.902Z,950.73
2023-03-15T06:41:29.780Z,950.73
2023-03-15T06:42:29.218Z,950.76
2023-03-15T06:43:29.158Z,950.80
2023-03-15T06:44:29.122Z,950.75
2023-03-15T06:45:29.841Z,950.78
2023-03-15T06:46:29.155Z,950.80
2023-03-15T06:47:29.616Z,950.84
2023-03-15T06:48:29.479Z,950.80
2023-03-15T06:49:29.061Z,950.83
2023-03-15T06:50:44.242Z,950.84
2023-03-15T06:51:30.178Z,950.88
2023-03-15T06:52:30.152Z,950.93
2023-03-15T06:53:29.593Z,950.91
2023-03-15T06:54:29.762Z,950.90
2023-03-15T06:55:29.009Z,950.88
2023-03-15T06:56:29.812Z,950.98
2023-03-15T06:57:30.589Z,951.01
2023-03-15T06:58:29.046Z,951.00
2023-03-15T06:59:28.968Z,951.01
2023-03-15T07:00:28.974Z,951.01
2023-03-15T07:01:29.861Z,951.05
2023-03-15T07:02:28.987Z,951.11
2023-03-15T07:03:29.224Z,951.11
2023-03-15T07:04:29.403Z,951.12
2023-03-15T07:05:29.076Z,951.13
2023-03-15T07:06:29.050Z,951.22
2023-03-15T07:07:29.594Z,951.19
2023-03-15T07:08:29.285Z,951.25
2023-03-15T07:09:28.848Z,951.25
2023-03-15T07:10:30.283Z,951.25
2023-03-15T07:11:28.846Z,951.32
2023-03-15T07:12:30.422Z,951.27
2023-03-15T07:13:28.819Z,951.30
2023-03-15T07:14:28.811Z,951.33
2023-03-15T07:15:28.926Z,951.32
2023-03-15T07:16:28.902Z,951.38
2023-03-15T07:17:28.771Z,951.35
2023-03-15T07:18:28.769Z,951.39
2023-03-15T07:19:28.802Z,951.45
2023-03-15T07:20:29.615Z,951.41
2023-03-15T07:21:28.767Z,951.39
2023-03-15T07:22:28.738Z,951.43
2023-03-15T07:23:29.874Z,951.46
2023-03-15T07:24:29.742Z,951.43
2023-03-15T07:25:28.694Z,951.46
2023-03-15T07:26:29.716Z,951.52
2023-03-15T07:27:29.158Z,951.55
2023-03-15T07:28:28.749Z,951.50
2023-03-15T07:29:28.734Z,951.54
2023-03-15T07:30:28.672Z,951.55
2023-03-15T07:31:28.656Z,951.59
2023-03-15T07:32:30.308Z,951.58
2023-03-15T07:33:30.432Z,951.57
2023-03-15T07:34:28.587Z,951.54
2023-03-15T07:35:28.630Z,951.59
2023-03-15T07:36:28.622Z,951.60
2023-03-15T07:37:28.566Z,951.63
2023-03-15T07:38:29.536Z,951.66
2023-03-15T07:39:28.531Z,951.65
2023-03-15T07:40:28.524Z,951.69
2023-03-15T07:41:28.650Z,951.72
2023-03-15T07:42:28.495Z,951.77
2023-03-15T07:43:28.492Z,951.73
2023-03-15T07:44:28.480Z,951.72
2023-03-15T07:45:28.528Z,951.76
2023-03-15T07:46:28.556Z,951.78
2023-03-15T07:47:28.458Z,951.83
2023-03-15T07:48:28.441Z,951.84
2023-03-15T07:49:28.435Z,951.87
2023-03-15T07:50:29.099Z,951.89
2023-03-15T07:51:28.406Z,951.94
2023-03-15T07:52:28.462Z,951.99
2023-03-15T07:53:28.384Z,951.93
2023-03-15T07:54:28.872Z,951.97
2023-03-15T07:55:28.352Z,951.97
2023-03-15T07:56:32.255Z,952.03
2023-03-15T07:57:29.065Z,952.01
2023-03-15T07:58:30.132Z,952.03
2023-03-15T07:59:29.335Z,952.02
2023-03-15T08:00:29.214Z,952.05
2023-03-15T08:01:28.633Z,952.09
2023-03-15T08:02:31.230Z,952.13
2023-03-15T08:03:34.775Z,952.08
2023-03-15T08:04:45.757Z,952.15
2023-03-15T08:05:32.875Z,952.19
2023-03-15T08:06:30.767Z,952.14
2023-03-15T08:07:30.645Z,952.23
2023-03-15T08:08:30.486Z,952.24
2023-03-15T08:09:29.728Z,952.28
2023-03-15T08:10:32.200Z,952.29
2023-03-15T08:11:32.170Z,952.29
2023-03-15T08:12:32.284Z,952.32
2023-03-15T08:13:30.291Z,952.36
2023-03-15T08:14:30.286Z,952.34
2023-03-15T08:15:28.837Z,952.37
2023-03-15T08:16:29.459Z,952.39
2023-03-15T08:17:28.303Z,952.36
2023-03-15T08:18:29.027Z,952.39
2023-03-15T08:19:36.773Z,952.49
2023-03-15T08:20:30.276Z,952.44
2023-03-15T08:21:29.668Z,952.50
2023-03-15T08:22:34.482Z,952.47
2023-03-15T08:23:29.736Z,952.48
2023-03-15T08:24:28.811Z,952.47
2023-03-15T08:25:29.455Z,952.56
2023-03-15T08:26:29.708Z,952.55
2023-03-15T08:27:31.264Z,952.57
2023-03-15T08:28:29.964Z,952.55
2023-03-15T08:29:31.015Z,952.55
2023-03-15T08:30:28.971Z,952.61
2023-03-15T08:31:32.171Z,952.58
2023-03-15T08:32:31.702Z,952.65
2023-03-15T08:33:28.666Z,952.65
2023-03-15T08:34:28.531Z,952.62
2023-03-15T08:35:28.003Z,952.67
2023-03-15T08:36:27.996Z,952.70
2023-03-15T08:37:29.679Z,952.74
2023-03-15T08:38:28.842Z,952.73
2023-03-15T08:39:27.877Z,952.73
2023-03-15T08:40:27.869Z,952.77
2023-03-15T08:41:27.917Z,952.74
2023-03-15T08:42:27.954Z,952.79
2023-03-15T08:43:27.868Z,952.77
2023-03-15T08:44:29.356Z,952.81
2023-03-15T08:45:27.813Z,952.84
2023-03-15T08:46:27.902Z,952.83
2023-03-15T08:47:27.783Z,952.84
2023-03-15T08:48:27.838Z,952.83
2023-03-15T08:49:27.810Z,952.86
2023-03-15T08:50:27.787Z,952.90
2023-03-15T08:51:27.762Z,952.94
2023-03-15T08:52:29.362Z,952.91
2023-03-15T08:53:27.730Z,952.95
2023-03-15T08:54:28.245Z,952.96
2023-03-15T08:55:27.763Z,952.96
2023-03-15T08:56:27.712Z,952.96
2023-03-15T08:57:27.679Z,952.97
2023-03-15T08:58:27.669Z,952.99
2023-03-15T08:59:32.316Z,953.01
2023-03-15T09:00:27.649Z,953.10
2023-03-15T09:01:27.644Z,953.05
2023-03-15T09:02:27.659Z,953.08
2023-03-15T09:03:27.639Z,953.04
2023-03-15T09:04:27.740Z,953.07
2023-03-15T09:05:27.618Z,953.12
2023-03-15T09:06:27.589Z,953.15
2023-03-15T09:07:27.580Z,953.14
2023-03-15T09:08:27.700Z,953.13
2023-03-15T09:09:27.554Z,953.17
2023-03-15T09:10:27.561Z,953.18
2023-03-15T09:11:27.602Z,953.22
2023-03-15T09:12:27.522Z,953.29
2023-03-15T09:13:27.532Z,953.28
2023-03-15T09:14:27.499Z,953.32
2023-03-15T09:15:27.793Z,953.32
2023-03-15T09:16:27.473Z,953.36
2023-03-15T09:17:27.464Z,953.40
2023-03-15T09:18:27.470Z,953.38
2023-03-15T09:19:27.518Z,953.40
2023-03-15T09:20:27.429Z,953.43
2023-03-15T09:21:27.414Z,953.35
2023-03-15T09:22:39.119Z,953.46
2023-03-15T09:23:27.424Z,953.46
2023-03-15T09:24:27.388Z,953.42
2023-03-15T09:25:27.399Z,953.48
2023-03-15T09:26:27.373Z,953.50
2023-03-15T09:27:27.369Z,953.48
2023-03-15T09:28:27.364Z,953.52
2023-03-15T09:29:27.331Z,953.52
2023-03-15T09:30:27.336Z,953.46
2023-03-15T09:31:27.375Z,953.51
2023-03-15T09:32:27.398Z,953.54
2023-03-15T09:33:27.388Z,953.53
2023-03-15T09:34:27.541Z,953.59
2023-03-15T09:35:27.486Z,953.56
